Time;durP1;ratioP1;P1;durP2;ratioP2;P2;SDS_P1;SDS_P2;PMS_P1;PMS_P2;Temp;Humidity;BMP_temperature;BMP_pressure;BME280_temperature;BME280_humidity;BME280_pressure;Samples;Min_cycle;Max_cycle;Signal;HPM_P1;HPM_P2
2023/11/30 00:00:13;;;;;;;;;;;;;;;;;;5042467;28;20024;-76
2023/11/30 00:02:40;;;;;;;;;;;;;;;;;;5042382;28;19924;-76
2023/11/30 00:05:07;;;;;;;;;;;;;;;;;;5049626;28;19925;-77
2023/11/30 00:07:34;;;;;;;;;;;;;;;;;;5045250;28;20016;-76
2023/11/30 00:10:00;;;;;;;;;;;;;;;;;;5053143;28;19929;-77
2023/11/30 00:12:27;;;;;;;;;;;;;;;;;;5033696;28;19925;-76
2023/11/30 00:14:53;;;;;;;;;;;;;;;;;;5046806;28;19925;-76
2023/11/30 00:17:20;;;;;;;;;;;;;;;;;;5046361;28;19955;-77
2023/11/30 00:19:46;;;;;;;;;;;;;;;;;;5049978;28;19925;-78
2023/11/30 00:22:12;;;;;;;;;;;;;;;;;;5046505;28;19928;-78
2023/11/30 00:24:39;;;;;;;;;;;;;;;;;;5047990;28;19932;-77
2023/11/30 00:27:05;;;;;;;;;;;;;;;;;;5046443;28;19929;-77
2023/11/30 00:29:32;;;;;;;;;;;;;;;;;;5039941;28;19932;-75
2023/11/30 00:31:58;;;;;;;;;;;;;;;;;;5036780;28;19975;-76
2023/11/30 00:34:24;;;;;;;;;;;;;;;;;;5042850;28;19930;-78
2023/11/30 00:36:51;;;;;;;;;;;;;;;;;;5047002;28;19929;-76
2023/11/30 00:39:17;;;;;;;;;;;;;;;;;;5046716;28;19987;-75
2023/11/30 00:41:44;;;;;;;;;;;;;;;;;;5042913;28;19931;-77
2023/11/30 00:44:10;;;;;;;;;;;;;;;;;;5046244;28;19971;-76
2023/11/30 00:46:37;;;;;;;;;;;;;;;;;;5046110;28;19933;-77
2023/11/30 00:49:03;;;;;;;;;;;;;;;;;;5051275;28;19925;-77
2023/11/30 00:51:30;;;;;;;;;;;;;;;;;;5049831;28;20448;-76
2023/11/30 00:53:57;;;;;;;;;;;;;;;;;;5050315;28;19975;-77
2023/11/30 00:56:24;;;;;;;;;;;;;;;;;;5053288;28;20024;-75
2023/11/30 00:58:50;;;;;;;;;;;;;;;;;;5032216;28;19932;-78
2023/11/30 01:01:17;;;;;;;;;;;;;;;;;;5043230;28;20403;-77
2023/11/30 01:03:43;;;;;;;;;;;;;;;;;;5052254;28;19925;-77
2023/11/30 01:06:10;;;;;;;;;;;;;;;;;;5052777;28;19924;-77
2023/11/30 01:08:36;;;;;;;;;;;;;;;;;;5049541;28;19925;-79
2023/11/30 01:11:03;;;;;;;;;;;;;;;;;;5046125;28;19975;-76
2023/11/30 01:13:29;;;;;;;;;;;;;;;;;;5048037;28;20281;-77
2023/11/30 01:15:56;;;;;;;;;;;;;;;;;;5044099;28;19929;-76
2023/11/30 01:18:23;;;;;;;;;;;;;;;;;;5047468;28;19932;-75
2023/11/30 01:20:49;;;;;;;;;;;;;;;;;;5031963;28;19925;-78
2023/11/30 01:23:16;;;;;;;;;;;;;;;;;;5043076;28;19936;-76
2023/11/30 01:25:42;;;;;;;;;;;;;;;;;;5045358;28;20363;-75
2023/11/30 01:28:09;;;;;;;;;;;;;;;;;;5051473;28;19967;-76
2023/11/30 01:30:35;;;;;;;;;;;;;;;;;;5049164;28;19976;-77
2023/11/30 01:33:01;;;;;;;;;;;;;;;;;;5048712;28;20350;-78
2023/11/30 01:35:29;;;;;;;;;;;;;;;;;;5048573;28;19975;-77
2023/11/30 01:37:58;;;;;;;;;;;;;;;;;;5034691;28;19936;-75
2023/11/30 01:40:25;;;;;;;;;;;;;;;;;;5042698;28;19993;-77
2023/11/30 01:42:51;;;;;;;;;;;;;;;;;;5048887;28;19999;-75
2023/11/30 01:45:17;;;;;;;;;;;;;;;;;;5044048;28;19959;-77
2023/11/30 01:47:44;;;;;;;;;;;;;;;;;;5050562;28;19929;-77
2023/11/30 01:50:11;;;;;;;;;;;;;;;;;;5045503;28;19947;-76
2023/11/30 01:52:39;;;;;;;;;;;;;;;;;;5050005;28;20023;-77
2023/11/30 01:55:06;;;;;;;;;;;;;;;;;;5051709;28;20386;-77
2023/11/30 01:57:32;;;;;;;;;;;;;;;;;;5050885;28;20054;-77
2023/11/30 01:59:59;;;;;;;;;;;;;;;;;;5043923;28;19972;-77
2023/11/30 02:02:25;;;;;;;;;;;;;;;;;;5032346;28;19960;-77
2023/11/30 02:04:52;;;;;;;;;;;;;;;;;;5044549;28;19975;-78
2023/11/30 02:07:20;;;;;;;;;;;;;;;;;;5050182;28;19929;-77
2023/11/30 02:09:46;;;;;;;;;;;;;;;;;;5042466;28;19940;-77
2023/11/30 02:12:13;;;;;;;;;;;;;;;;;;5031854;28;19975;-77
2023/11/30 02:14:39;;;;;;;;;;;;;;;;;;5052250;28;19936;-78
2023/11/30 02:17:06;;;;;;;;;;;;;;;;;;5045684;28;19929;-78
2023/11/30 02:19:32;;;;;;;;;;;;;;;;;;5050611;28;19975;-78
2023/11/30 02:21:59;;;;;;;;;;;;;;;;;;5051811;28;19925;-78
2023/11/30 02:24:25;;;;;;;;;;;;;;;;;;5060941;28;19925;-78
2023/11/30 02:26:52;;;;;;;;;;;;;;;;;;5041374;28;19929;-79
2023/11/30 02:29:19;;;;;;;;;;;;;;;;;;5036211;28;20300;-79
2023/11/30 02:31:45;;;;;;;;;;;;;;;;;;5029894;28;19925;-78
2023/11/30 02:34:12;;;;;;;;;;;;;;;;;;5050180;28;20277;-79
2023/11/30 02:36:38;;;;;;;;;;;;;;;;;;5041553;28;19929;-77
2023/11/30 02:39:05;;;;;;;;;;;;;;;;;;5028251;28;19974;-77
2023/11/30 02:41:31;;;;;;;;;;;;;;;;;;5049825;28;19947;-78
2023/11/30 02:43:58;;;;;;;;;;;;;;;;;;5044939;28;19925;-78
2023/11/30 02:46:24;;;;;;;;;;;;;;;;;;5038679;28;19925;-79
2023/11/30 02:48:51;;;;;;;;;;;;;;;;;;5043686;28;19929;-78
2023/11/30 02:51:17;;;;;;;;;;;;;;;;;;5040111;28;20367;-78
2023/11/30 02:53:46;;;;;;;;;;;;;;;;;;5041512;28;19968;-77
2023/11/30 02:56:13;;;;;;;;;;;;;;;;;;5042978;28;19936;-78
2023/11/30 02:58:39;;;;;;;;;;;;;;;;;;5043289;28;19929;-79
2023/11/30 03:01:06;;;;;;;;;;;;;;;;;;5050248;28;19929;-78
2023/11/30 03:03:32;;;;;;;;;;;;;;;;;;5047730;28;19925;-79
2023/11/30 03:05:59;;;;;;;;;;;;;;;;;;5044514;28;20408;-79
2023/11/30 03:08:25;;;;;;;;;;;;;;;;;;5042656;28;19925;-78
2023/11/30 03:10:52;;;;;;;;;;;;;;;;;;5049018;28;20340;-77
2023/11/30 03:13:18;;;;;;;;;;;;;;;;;;5041239;28;20709;-78
2023/11/30 03:15:44;;;;;;;;;;;;;;;;;;5049387;28;19938;-81
2023/11/30 03:18:11;;;;;;;;;;;;;;;;;;5034228;28;20688;-79
2023/11/30 03:20:37;;;;;;;;;;;;;;;;;;5042323;28;19925;-80
2023/11/30 03:23:04;;;;;;;;;;;;;;;;;;5045382;28;19931;-80
2023/11/30 03:25:32;;;;;;;;;;;;;;;;;;5049501;28;19978;-78
2023/11/30 03:27:59;;;;;;;;;;;;;;;;;;5040769;28;19929;-80
2023/11/30 03:30:26;;;;;;;;;;;;;;;;;;5045736;28;19963;-78
2023/11/30 03:32:52;;;;;;;;;;;;;;;;;;5050443;28;19925;-78
2023/11/30 03:35:18;;;;;;;;;;;;;;;;;;5044495;28;19947;-79
2023/11/30 03:37:45;;;;;;;;;;;;;;;;;;5050902;28;19964;-78
2023/11/30 03:40:11;;;;;;;;;;;;;;;;;;5044991;28;19932;-77
2023/11/30 03:42:38;;;;;;;;;;;;;;;;;;5032184;28;20377;-79
2023/11/30 03:45:04;;;;;;;;;;;;;;;;;;5041392;28;19979;-80
2023/11/30 03:47:32;;;;;;;;;;;;;;;;;;5038375;28;19975;-80
2023/11/30 03:49:58;;;;;;;;;;;;;;;;;;5043943;28;19928;-80
2023/11/30 03:52:24;;;;;;;;;;;;;;;;;;5042884;28;19929;-77
2023/11/30 03:54:51;;;;;;;;;;;;;;;;;;5048745;28;19935;-79
2023/11/30 03:57:17;;;;;;;;;;;;;;;;;;5035452;28;20304;-79
2023/11/30 03:59:44;;;;;;;;;;;;;;;;;;5029048;28;19933;-79
2023/11/30 04:02:11;;;;;;;;;;;;;;;;;;5050250;28;19925;-79
2023/11/30 04:04:37;;;;;;;;;;;;;;;;;;5038918;28;20020;-78
2023/11/30 04:07:04;;;;;;;;;;;;;;;;;;5023045;28;19929;-78
2023/11/30 04:09:30;;;;;;;;;;;;;;;;;;5048270;28;20297;-79
2023/11/30 04:11:57;;;;;;;;;;;;;;;;;;5032654;28;19933;-78
2023/11/30 04:14:23;;;;;;;;;;;;;;;;;;5038669;28;19960;-79
2023/11/30 04:16:50;;;;;;;;;;;;;;;;;;5040064;28;19925;-77
2023/11/30 04:19:16;;;;;;;;;;;;;;;;;;5044995;28;19974;-78
2023/11/30 04:21:42;;;;;;;;;;;;;;;;;;5041285;28;19929;-78
2023/11/30 04:24:09;;;;;;;;;;;;;;;;;;5048967;28;19925;-79
2023/11/30 04:26:36;;;;;;;;;;;;;;;;;;5045447;28;19929;-79
2023/11/30 04:29:02;;;;;;;;;;;;;;;;;;5053342;28;19925;-79
2023/11/30 04:31:29;;;;;;;;;;;;;;;;;;5048757;28;19928;-79
2023/11/30 04:33:56;;;;;;;;;;;;;;;;;;5049959;28;19929;-79
2023/11/30 04:36:22;;;;;;;;;;;;;;;;;;5054752;28;19928;-78
2023/11/30 04:38:49;;;;;;;;;;;;;;;;;;5045692;28;20324;-80
2023/11/30 04:41:16;;;;;;;;;;;;;;;;;;5049339;28;19933;-79
2023/11/30 04:43:42;;;;;;;;;;;;;;;;;;5048842;28;19929;-78
2023/11/30 04:46:09;;;;;;;;;;;;;;;;;;5038341;28;20016;-78
2023/11/30 04:48:35;;;;;;;;;;;;;;;;;;5041744;28;19932;-79
2023/11/30 04:51:04;;;;;;;;;;;;;;;;;;5046512;28;19925;-79
2023/11/30 04:53:30;;;;;;;;;;;;;;;;;;5043281;28;20017;-79
2023/11/30 04:55:56;;;;;;;;;;;;;;;;;;5047557;28;19964;-79
2023/11/30 04:58:23;;;;;;;;;;;;;;;;;;5037426;28;20011;-78
2023/11/30 05:00:50;;;;;;;;;;;;;;;;;;5045534;28;19960;-78
2023/11/30 05:03:18;;;;;;;;;;;;;;;;;;5049951;28;19929;-79
2023/11/30 05:05:45;;;;;;;;;;;;;;;;;;5034016;28;19928;-79
2023/11/30 05:08:11;;;;;;;;;;;;;;;;;;5051898;28;19959;-78
2023/11/30 05:10:39;;;;;;;;;;;;;;;;;;5045314;28;19929;-79
2023/11/30 05:13:06;;;;;;;;;;;;;;;;;;5026884;28;20492;-77
2023/11/30 05:15:33;;;;;;;;;;;;;;;;;;5044871;28;20006;-78
2023/11/30 05:17:59;;;;;;;;;;;;;;;;;;5025610;28;19979;-79
2023/11/30 05:20:26;;;;;;;;;;;;;;;;;;5049786;28;19929;-80
2023/11/30 05:22:52;;;;;;;;;;;;;;;;;;5038732;28;20020;-77
2023/11/30 05:25:19;;;;;;;;;;;;;;;;;;5052482;28;19926;-77
2023/11/30 05:27:45;;;;;;;;;;;;;;;;;;5037708;28;20023;-78
2023/11/30 05:30:12;;;;;;;;;;;;;;;;;;5030909;28;19982;-79
2023/11/30 05:32:39;;;;;;;;;;;;;;;;;;5041678;28;19932;-79
2023/11/30 05:35:05;;;;;;;;;;;;;;;;;;5034045;28;19972;-78
2023/11/30 05:37:32;;;;;;;;;;;;;;;;;;5028259;28;20035;-79
2023/11/30 05:39:58;;;;;;;;;;;;;;;;;;5047570;28;20304;-77
2023/11/30 05:42:25;;;;;;;;;;;;;;;;;;5028766;28;20016;-79
2023/11/30 05:44:51;;;;;;;;;;;;;;;;;;5052487;28;19927;-80
2023/11/30 05:47:18;;;;;;;;;;;;;;;;;;5053961;28;19983;-78
2023/11/30 05:49:44;;;;;;;;;;;;;;;;;;5044466;28;19979;-80
2023/11/30 05:52:10;;;;;;;;;;;;;;;;;;5048944;28;20394;-80
2023/11/30 05:54:39;;;;;;;;;;;;;;;;;;5041586;28;20449;-80
2023/11/30 05:57:05;;;;;;;;;;;;;;;;;;5049776;28;19929;-80
2023/11/30 05:59:31;;;;;;;;;;;;;;;;;;5050389;28;19972;-80
2023/11/30 06:01:59;;;;;;;;;;;;;;;;;;5050299;28;20332;-80
2023/11/30 06:04:26;;;;;;;;;;;;;;;;;;5047569;28;19925;-79
2023/11/30 06:06:52;;;;;;;;;;;;;;;;;;5033659;28;19929;-78
2023/11/30 06:09:18;;;;;;;;;;;;;;;;;;5051054;28;20024;-80
2023/11/30 06:11:45;;;;;;;;;;;;;;;;;;5052757;28;19929;-80
2023/11/30 06:14:11;;;;;;;;;;;;;;;;;;5050687;28;19929;-79
2023/11/30 06:16:38;;;;;;;;;;;;;;;;;;5043378;28;19933;-80
2023/11/30 06:19:04;;;;;;;;;;;;;;;;;;5044721;28;19925;-78
2023/11/30 06:21:31;;;;;;;;;;;;;;;;;;5044983;28;19924;-81
2023/11/30 06:23:58;;;;;;;;;;;;;;;;;;5048708;28;19979;-79
2023/11/30 06:26:24;;;;;;;;;;;;;;;;;;5043667;28;19979;-79
2023/11/30 06:28:50;;;;;;;;;;;;;;;;;;5044851;28;20034;-78
2023/11/30 06:31:17;;;;;;;;;;;;;;;;;;5037372;28;20456;-78
2023/11/30 06:33:44;;;;;;;;;;;;;;;;;;5053542;28;19936;-79
2023/11/30 06:36:11;;;;;;;;;;;;;;;;;;5052436;28;19929;-80
2023/11/30 06:38:37;;;;;;;;;;;;;;;;;;5054130;28;20019;-79
2023/11/30 06:41:04;;;;;;;;;;;;;;;;;;5041981;28;19960;-79
2023/11/30 06:43:30;;;;;;;;;;;;;;;;;;5044877;28;19978;-79
2023/11/30 06:45:57;;;;;;;;;;;;;;;;;;5039502;28;19931;-80
2023/11/30 06:48:25;;;;;;;;;;;;;;;;;;5042589;28;20023;-78
2023/11/30 06:50:51;;;;;;;;;;;;;;;;;;5046009;28;19924;-79
2023/11/30 06:53:18;;;;;;;;;;;;;;;;;;5041974;28;20385;-77
2023/11/30 06:55:45;;;;;;;;;;;;;;;;;;5038947;28;19936;-78
2023/11/30 06:58:12;;;;;;;;;;;;;;;;;;5026128;28;19925;-79
2023/11/30 07:00:38;;;;;;;;;;;;;;;;;;5055236;28;20354;-79
2023/11/30 07:03:05;;;;;;;;;;;;;;;;;;5026981;28;19925;-79
2023/11/30 07:05:32;;;;;;;;;;;;;;;;;;5036928;28;20415;-77
2023/11/30 07:07:58;;;;;;;;;;;;;;;;;;5044055;28;20512;-79
2023/11/30 07:10:25;;;;;;;;;;;;;;;;;;5050390;28;20019;-79
2023/11/30 07:12:51;;;;;;;;;;;;;;;;;;5045546;28;19925;-79
2023/11/30 07:15:18;;;;;;;;;;;;;;;;;;5048975;28;19929;-80
2023/11/30 07:17:44;;;;;;;;;;;;;;;;;;5041878;28;19924;-80
2023/11/30 07:20:11;;;;;;;;;;;;;;;;;;5041085;28;19925;-76
2023/11/30 07:22:37;;;;;;;;;;;;;;;;;;5040964;28;20408;-78
2023/11/30 07:25:04;;;;;;;;;;;;;;;;;;5041607;28;19939;-78
2023/11/30 07:27:30;;;;;;;;;;;;;;;;;;5033238;28;19932;-80
2023/11/30 07:29:57;;;;;;;;;;;;;;;;;;5045909;28;20381;-79
2023/11/30 07:32:23;;;;;;;;;;;;;;;;;;5040261;28;19925;-80
2023/11/30 07:34:49;;;;;;;;;;;;;;;;;;5044938;28;19971;-79
2023/11/30 07:37:17;;;;;;;;;;;;;;;;;;5048236;28;20019;-78
2023/11/30 07:39:44;;;;;;;;;;;;;;;;;;5048317;28;19932;-79
2023/11/30 07:42:10;;;;;;;;;;;;;;;;;;5050614;28;19941;-77
2023/11/30 07:44:37;;;;;;;;;;;;;;;;;;5048910;28;19933;-79
2023/11/30 07:47:03;;;;;;;;;;;;;;;;;;5047653;28;20451;-77
2023/11/30 07:49:30;;;;;;;;;;;;;;;;;;5042657;28;19931;-77
2023/11/30 07:51:56;;;;;;;;;;;;;;;;;;5047701;28;19929;-79
2023/11/30 07:54:24;;;;;;;;;;;;;;;;;;5034104;28;20274;-79
2023/11/30 07:56:50;;;;;;;;;;;;;;;;;;5048774;28;19925;-79
2023/11/30 07:59:17;;;;;;;;;;;;;;;;;;5043416;28;19960;-79
2023/11/30 08:01:44;;;;;;;;;;;;;;;;;;5049841;28;19925;-79
2023/11/30 08:04:10;;;;;;;;;;;;;;;;;;5048657;28;19931;-80
2023/11/30 08:06:37;;;;;;;;;;;;;;;;;;5037243;28;19995;-77
2023/11/30 08:09:03;;;;;;;;;;;;;;;;;;5051771;28;20357;-79
2023/11/30 08:11:30;;;;;;;;;;;;;;;;;;5049892;28;19929;-79
2023/11/30 08:13:56;;;;;;;;;;;;;;;;;;5033753;28;19929;-78
2023/11/30 08:16:23;;;;;;;;;;;;;;;;;;5040042;28;20270;-79
2023/11/30 08:18:50;;;;;;;;;;;;;;;;;;5039405;28;19935;-80
2023/11/30 08:21:16;;;;;;;;;;;;;;;;;;5042219;28;19929;-77
2023/11/30 08:23:43;;;;;;;;;;;;;;;;;;5045013;28;19925;-80
2023/11/30 08:26:11;;;;;;;;;;;;;;;;;;5032650;28;19971;-79
2023/11/30 08:28:38;;;;;;;;;;;;;;;;;;5039624;28;20019;-80
2023/11/30 08:31:05;;;;;;;;;;;;;;;;;;5039239;28;19951;-79
2023/11/30 08:33:32;;;;;;;;;;;;;;;;;;5027788;28;19924;-79
2023/11/30 08:35:59;;;;;;;;;;;;;;;;;;5041128;28;19930;-79
2023/11/30 08:38:26;;;;;;;;;;;;;;;;;;5041673;28;19960;-79
2023/11/30 08:40:53;;;;;;;;;;;;;;;;;;5051504;28;20305;-79
2023/11/30 08:43:19;;;;;;;;;;;;;;;;;;5047961;28;19928;-77
2023/11/30 08:45:46;;;;;;;;;;;;;;;;;;5050442;28;19970;-79
2023/11/30 08:48:12;;;;;;;;;;;;;;;;;;5043459;28;20414;-78
2023/11/30 08:50:39;;;;;;;;;;;;;;;;;;5029280;28;19929;-80
2023/11/30 08:53:05;;;;;;;;;;;;;;;;;;5052032;28;19928;-78
2023/11/30 08:55:32;;;;;;;;;;;;;;;;;;5042492;28;19925;-78
2023/11/30 08:57:58;;;;;;;;;;;;;;;;;;5053889;28;20705;-79
2023/11/30 09:00:24;;;;;;;;;;;;;;;;;;5045106;28;19932;-78
2023/11/30 09:02:51;;;;;;;;;;;;;;;;;;5045208;28;20455;-78
2023/11/30 09:05:19;;;;;;;;;;;;;;;;;;5046397;28;20338;-77
2023/11/30 09:07:46;;;;;;;;;;;;;;;;;;5035564;28;19976;-79
2023/11/30 09:10:12;;;;;;;;;;;;;;;;;;5027771;28;19932;-78
2023/11/30 09:12:39;;;;;;;;;;;;;;;;;;5050043;28;20149;-78
2023/11/30 09:15:08;;;;;;;;;;;;;;;;;;5052599;28;20047;-79
2023/11/30 09:17:35;;;;;;;;;;;;;;;;;;5044504;28;19987;-78
2023/11/30 09:20:01;;;;;;;;;;;;;;;;;;5051182;28;19949;-78
2023/11/30 09:22:28;;;;;;;;;;;;;;;;;;5048510;28;19975;-79
2023/11/30 09:24:54;;;;;;;;;;;;;;;;;;5044852;28;19971;-80
2023/11/30 09:27:21;;;;;;;;;;;;;;;;;;5051027;28;20024;-79
2023/11/30 09:29:47;;;;;;;;;;;;;;;;;;5036188;28;19978;-78
2023/11/30 09:32:14;;;;;;;;;;;;;;;;;;5045678;28;19924;-78
2023/11/30 09:34:40;;;;;;;;;;;;;;;;;;5037028;28;20363;-79
2023/11/30 09:37:06;;;;;;;;;;;;;;;;;;5048229;28;20396;-79
2023/11/30 09:39:33;;;;;;;;;;;;;;;;;;5035127;28;19929;-76
2023/11/30 09:42:00;;;;;;;;;;;;;;;;;;5043151;28;20014;-78
2023/11/30 09:44:27;;;;;;;;;;;;;;;;;;5036314;28;19929;-78
2023/11/30 09:46:53;;;;;;;;;;;;;;;;;;5048487;28;20031;-77
2023/11/30 09:49:19;;;;;;;;;;;;;;;;;;5047119;28;19928;-77
2023/11/30 09:51:48;;;;;;;;;;;;;;;;;;5047997;28;20373;-78
2023/11/30 09:54:14;;;;;;;;;;;;;;;;;;5045271;28;20385;-78
2023/11/30 09:56:41;;;;;;;;;;;;;;;;;;5051580;28;20435;-78
2023/11/30 09:59:07;;;;;;;;;;;;;;;;;;5051163;28;19925;-78
2023/11/30 10:01:34;;;;;;;;;;;;;;;;;;5045155;28;19925;-78
2023/11/30 10:04:00;;;;;;;;;;;;;;;;;;5033558;28;19931;-78
2023/11/30 10:06:27;;;;;;;;;;;;;;;;;;5029048;28;20020;-79
2023/11/30 10:08:53;;;;;;;;;;;;;;;;;;5040731;28;19925;-77
2023/11/30 10:11:20;;;;;;;;;;;;;;;;;;5050284;28;19929;-77
2023/11/30 10:13:46;;;;;;;;;;;;;;;;;;5047070;28;19996;-77
2023/11/30 10:16:13;;;;;;;;;;;;;;;;;;5045969;28;20374;-77
2023/11/30 10:18:39;;;;;;;;;;;;;;;;;;5058060;28;20020;-77
2023/11/30 10:21:06;;;;;;;;;;;;;;;;;;5030699;28;19971;-77
2023/11/30 10:23:34;;;;;;;;;;;;;;;;;;5044690;28;19937;-78
2023/11/30 10:26:00;;;;;;;;;;;;;;;;;;5028194;28;20010;-80
2023/11/30 10:28:27;;;;;;;;;;;;;;;;;;5052188;28;19925;-77
2023/11/30 10:30:57;;;;;;;;;;;;;;;;;;5048288;28;20012;-77
2023/11/30 10:33:26;;;;;;;;;;;;;;;;;;5045797;28;19982;-77
2023/11/30 10:35:53;;;;;;;;;;;;;;;;;;5045379;28;19925;-77
2023/11/30 10:38:21;;;;;;;;;;;;;;;;;;5051779;28;19929;-77
2023/11/30 10:40:47;;;;;;;;;;;;;;;;;;5045917;28;20019;-78
2023/11/30 10:43:13;;;;;;;;;;;;;;;;;;5035164;28;19925;-78
2023/11/30 10:45:40;;;;;;;;;;;;;;;;;;5043115;28;19932;-78
2023/11/30 10:48:07;;;;;;;;;;;;;;;;;;5042871;28;20008;-78
2023/11/30 10:50:33;;;;;;;;;;;;;;;;;;5030531;28;19929;-78
2023/11/30 10:52:59;;;;;;;;;;;;;;;;;;5049733;28;19935;-78
2023/11/30 10:55:26;;;;;;;;;;;;;;;;;;5041315;28;19924;-76
2023/11/30 10:57:53;;;;;;;;;;;;;;;;;;5035649;28;19928;-78
2023/11/30 11:00:23;;;;;;;;;;;;;;;;;;5036829;28;20333;-77
2023/11/30 11:02:49;;;;;;;;;;;;;;;;;;5027110;28;19936;-77
2023/11/30 11:05:18;;;;;;;;;;;;;;;;;;5047292;28;20030;-76
2023/11/30 11:07:44;;;;;;;;;;;;;;;;;;5049595;28;19932;-77
2023/11/30 11:10:12;;;;;;;;;;;;;;;;;;5044457;28;20087;-76
2023/11/30 11:12:40;;;;;;;;;;;;;;;;;;5050962;28;19970;-77
2023/11/30 11:15:08;;;;;;;;;;;;;;;;;;5038992;28;19925;-76
2023/11/30 11:17:38;;;;;;;;;;;;;;;;;;5050739;28;20468;-75
2023/11/30 11:20:05;;;;;;;;;;;;;;;;;;5046237;28;19925;-78
2023/11/30 11:22:31;;;;;;;;;;;;;;;;;;5030809;28;20016;-77
2023/11/30 11:24:58;;;;;;;;;;;;;;;;;;5045307;28;20039;-79
2023/11/30 11:27:24;;;;;;;;;;;;;;;;;;5042428;28;20428;-76
2023/11/30 11:29:51;;;;;;;;;;;;;;;;;;5045193;28;20027;-77
2023/11/30 11:32:17;;;;;;;;;;;;;;;;;;5048066;28;19925;-76
2023/11/30 11:34:44;;;;;;;;;;;;;;;;;;5044929;28;20383;-76
2023/11/30 11:37:11;;;;;;;;;;;;;;;;;;5041525;28;19936;-75
2023/11/30 11:39:37;;;;;;;;;;;;;;;;;;5041889;28;19964;-76
2023/11/30 11:42:04;;;;;;;;;;;;;;;;;;5036669;28;20319;-75
2023/11/30 11:44:30;;;;;;;;;;;;;;;;;;5049737;28;19925;-75
2023/11/30 11:46:57;;;;;;;;;;;;;;;;;;5041433;28;20285;-77
2023/11/30 11:49:23;;;;;;;;;;;;;;;;;;5043698;28;19924;-78
2023/11/30 11:51:49;;;;;;;;;;;;;;;;;;5046058;28;19967;-76
2023/11/30 11:54:16;;;;;;;;;;;;;;;;;;5043649;28;19932;-76
2023/11/30 11:56:42;;;;;;;;;;;;;;;;;;5024798;28;19933;-76
2023/11/30 11:59:09;;;;;;;;;;;;;;;;;;5045975;28;20341;-76
2023/11/30 12:01:35;;;;;;;;;;;;;;;;;;5041829;28;20011;-77
2023/11/30 12:04:02;;;;;;;;;;;;;;;;;;5040512;28;19933;-76
2023/11/30 12:06:28;;;;;;;;;;;;;;;;;;5037734;28;19987;-78
2023/11/30 12:08:55;;;;;;;;;;;;;;;;;;5039876;28;19925;-77
2023/11/30 12:11:21;;;;;;;;;;;;;;;;;;5043560;28;19929;-76
2023/11/30 12:13:48;;;;;;;;;;;;;;;;;;5029566;28;19925;-77
2023/11/30 12:16:14;;;;;;;;;;;;;;;;;;5048566;28;19932;-76
2023/11/30 12:18:41;;;;;;;;;;;;;;;;;;5037366;28;19925;-77
2023/11/30 12:21:08;;;;;;;;;;;;;;;;;;5052635;28;19925;-76
2023/11/30 12:23:34;;;;;;;;;;;;;;;;;;5038532;28;19931;-75
2023/11/30 12:26:00;;;;;;;;;;;;;;;;;;5048380;28;19971;-76
2023/11/30 12:28:28;;;;;;;;;;;;;;;;;;5051179;28;19932;-76
2023/11/30 12:30:54;;;;;;;;;;;;;;;;;;5049669;28;19970;-76
2023/11/30 12:33:22;;;;;;;;;;;;;;;;;;5028373;28;20397;-75
2023/11/30 12:35:52;;;;;;;;;;;;;;;;;;5044213;28;19925;-76
2023/11/30 12:38:18;;;;;;;;;;;;;;;;;;5050589;28;19929;-75
2023/11/30 12:40:45;;;;;;;;;;;;;;;;;;5040201;28;20020;-78
2023/11/30 12:43:11;;;;;;;;;;;;;;;;;;5032007;28;19929;-76
2023/11/30 12:45:37;;;;;;;;;;;;;;;;;;5042820;28;19929;-77
2023/11/30 12:48:04;;;;;;;;;;;;;;;;;;5045314;28;20019;-76
2023/11/30 12:50:30;;;;;;;;;;;;;;;;;;5046560;28;20329;-77
2023/11/30 12:52:57;;;;;;;;;;;;;;;;;;5045800;28;19925;-76
2023/11/30 12:55:23;;;;;;;;;;;;;;;;;;5047962;28;19929;-75
2023/11/30 12:57:50;;;;;;;;;;;;;;;;;;5046565;28;19929;-77
2023/11/30 13:00:17;;;;;;;;;;;;;;;;;;5044350;28;19925;-77
2023/11/30 13:02:46;;;;;;;;;;;;;;;;;;5049828;28;19931;-77
2023/11/30 13:05:13;;;;;;;;;;;;;;;;;;5044558;28;19929;-78
2023/11/30 13:07:39;;;;;;;;;;;;;;;;;;5052960;28;19933;-77
2023/11/30 13:10:07;;;;;;;;;;;;;;;;;;5047586;28;19979;-76
2023/11/30 13:12:34;;;;;;;;;;;;;;;;;;5044397;28;19928;-76
2023/11/30 13:15:00;;;;;;;;;;;;;;;;;;5049907;28;19925;-76
2023/11/30 13:17:27;;;;;;;;;;;;;;;;;;5050230;28;19925;-75
2023/11/30 13:19:53;;;;;;;;;;;;;;;;;;5043694;28;19925;-76
2023/11/30 13:22:21;;;;;;;;;;;;;;;;;;5050556;28;19952;-76
2023/11/30 13:24:47;;;;;;;;;;;;;;;;;;5042456;28;19925;-75
2023/11/30 13:27:14;;;;;;;;;;;;;;;;;;5047760;28;20684;-76
2023/11/30 13:29:40;;;;;;;;;;;;;;;;;;5029443;28;19929;-77
2023/11/30 13:32:07;;;;;;;;;;;;;;;;;;5040659;28;20302;-77
2023/11/30 13:34:35;;;;;;;;;;;;;;;;;;5029320;28;19983;-77
2023/11/30 13:37:01;;;;;;;;;;;;;;;;;;5044961;28;19979;-75
2023/11/30 13:39:28;;;;;;;;;;;;;;;;;;5051250;28;20349;-77
2023/11/30 13:41:54;;;;;;;;;;;;;;;;;;5049425;28;19925;-78
2023/11/30 13:44:21;;;;;;;;;;;;;;;;;;5046793;28;20015;-77
2023/11/30 13:46:47;;;;;;;;;;;;;;;;;;5024971;28;20349;-77
2023/11/30 13:49:14;;;;;;;;;;;;;;;;;;5047689;28;19951;-78
2023/11/30 13:51:40;;;;;;;;;;;;;;;;;;5032455;28;19960;-75
2023/11/30 13:54:07;;;;;;;;;;;;;;;;;;5046652;28;19933;-77
2023/11/30 13:56:33;;;;;;;;;;;;;;;;;;5043783;28;19925;-77
2023/11/30 13:59:01;;;;;;;;;;;;;;;;;;5041625;28;20028;-77
2023/11/30 14:01:27;;;;;;;;;;;;;;;;;;5043795;28;19994;-75
2023/11/30 14:03:54;;;;;;;;;;;;;;;;;;5048600;28;19925;-76
2023/11/30 14:06:20;;;;;;;;;;;;;;;;;;5045420;28;19929;-76
2023/11/30 14:08:47;;;;;;;;;;;;;;;;;;5031753;28;19935;-77
2023/11/30 14:11:14;;;;;;;;;;;;;;;;;;5048916;28;19929;-76
2023/11/30 14:13:40;;;;;;;;;;;;;;;;;;5053326;28;19959;-76
2023/11/30 14:16:06;;;;;;;;;;;;;;;;;;5029096;28;19924;-76
2023/11/30 14:18:33;;;;;;;;;;;;;;;;;;5050815;28;20378;-75
2023/11/30 14:20:59;;;;;;;;;;;;;;;;;;5044487;28;19932;-76
2023/11/30 14:23:27;;;;;;;;;;;;;;;;;;5048194;28;19955;-76
2023/11/30 14:25:53;;;;;;;;;;;;;;;;;;5045431;28;19925;-78
2023/11/30 14:28:19;;;;;;;;;;;;;;;;;;5044586;28;19932;-76
2023/11/30 14:30:46;;;;;;;;;;;;;;;;;;5043093;28;20000;-75
2023/11/30 14:33:13;;;;;;;;;;;;;;;;;;5026807;28;20023;-76
2023/11/30 14:35:39;;;;;;;;;;;;;;;;;;5039113;28;20024;-75
2023/11/30 14:38:06;;;;;;;;;;;;;;;;;;5047907;28;19929;-76
2023/11/30 14:40:32;;;;;;;;;;;;;;;;;;5043702;28;20292;-76
2023/11/30 14:42:58;;;;;;;;;;;;;;;;;;5051480;28;19925;-76
2023/11/30 14:45:26;;;;;;;;;;;;;;;;;;5041791;28;19928;-76
2023/11/30 14:47:53;;;;;;;;;;;;;;;;;;5039798;28;19935;-76
2023/11/30 14:50:19;;;;;;;;;;;;;;;;;;5031772;28;19964;-74
2023/11/30 14:52:45;;;;;;;;;;;;;;;;;;5033532;28;19925;-75
2023/11/30 14:55:12;;;;;;;;;;;;;;;;;;5039284;28;19975;-76
2023/11/30 14:57:40;;;;;;;;;;;;;;;;;;5038596;28;19925;-77
2023/11/30 15:00:11;;;;;;;;;;;;;;;;;;5043554;28;19929;-76
2023/11/30 15:02:38;;;;;;;;;;;;;;;;;;5043012;28;19929;-75
2023/11/30 15:05:07;;;;;;;;;;;;;;;;;;5043473;28;19925;-75
2023/11/30 15:07:33;;;;;;;;;;;;;;;;;;5037478;28;19932;-76
2023/11/30 15:10:00;;;;;;;;;;;;;;;;;;5044012;28;19935;-74
2023/11/30 15:12:26;;;;;;;;;;;;;;;;;;5050955;28;20453;-74
2023/11/30 15:14:55;;;;;;;;;;;;;;;;;;5032982;28;19964;-74
2023/11/30 15:17:22;;;;;;;;;;;;;;;;;;5041838;28;19925;-74
2023/11/30 15:19:50;;;;;;;;;;;;;;;;;;5043713;28;20334;-75
2023/11/30 15:22:17;;;;;;;;;;;;;;;;;;5049178;28;20019;-75
2023/11/30 15:24:43;;;;;;;;;;;;;;;;;;5044881;28;19968;-79
2023/11/30 15:27:09;;;;;;;;;;;;;;;;;;5041937;28;20095;-75
2023/11/30 15:29:36;;;;;;;;;;;;;;;;;;5049007;28;20007;-76
2023/11/30 15:32:02;;;;;;;;;;;;;;;;;;5044477;28;19929;-77
2023/11/30 15:34:28;;;;;;;;;;;;;;;;;;5039875;28;19931;-75
2023/11/30 15:36:55;;;;;;;;;;;;;;;;;;5037641;28;19948;-77
2023/11/30 15:39:23;;;;;;;;;;;;;;;;;;5040828;28;19975;-77
2023/11/30 15:41:50;;;;;;;;;;;;;;;;;;5049774;28;19983;-77
2023/11/30 15:44:16;;;;;;;;;;;;;;;;;;5039825;28;20305;-74
2023/11/30 15:46:43;;;;;;;;;;;;;;;;;;5041026;28;20312;-75
2023/11/30 15:49:12;;;;;;;;;;;;;;;;;;5043344;28;20031;-78
2023/11/30 15:51:39;;;;;;;;;;;;;;;;;;5042069;28;19925;-76
2023/11/30 15:54:06;;;;;;;;;;;;;;;;;;5044625;28;20019;-75
2023/11/30 15:56:32;;;;;;;;;;;;;;;;;;5042002;28;20393;-75
2023/11/30 15:58:59;;;;;;;;;;;;;;;;;;5043661;28;19925;-76
2023/11/30 16:01:30;;;;;;;;;;;;;;;;;;5049146;28;20439;-76
2023/11/30 16:03:57;;;;;;;;;;;;;;;;;;5041221;28;20348;-75
2023/11/30 16:06:23;;;;;;;;;;;;;;;;;;5045014;28;19936;-74
2023/11/30 16:08:50;;;;;;;;;;;;;;;;;;5046229;28;19936;-74
2023/11/30 16:11:18;;;;;;;;;;;;;;;;;;5048145;28;19978;-76
2023/11/30 16:13:44;;;;;;;;;;;;;;;;;;5045661;28;19964;-74
2023/11/30 16:16:12;;;;;;;;;;;;;;;;;;5043922;28;19928;-77
2023/11/30 16:18:38;;;;;;;;;;;;;;;;;;5048696;28;20047;-75
2023/11/30 16:21:05;;;;;;;;;;;;;;;;;;5042923;28;20376;-77
2023/11/30 16:23:31;;;;;;;;;;;;;;;;;;5046216;28;19983;-75
2023/11/30 16:25:57;;;;;;;;;;;;;;;;;;5043431;28;19975;-76
2023/11/30 16:28:24;;;;;;;;;;;;;;;;;;5048164;28;19960;-76
2023/11/30 16:30:50;;;;;;;;;;;;;;;;;;5041778;28;19929;-75
2023/11/30 16:33:17;;;;;;;;;;;;;;;;;;5042226;28;19925;-77
2023/11/30 16:35:44;;;;;;;;;;;;;;;;;;5037561;28;20409;-74
2023/11/30 16:38:10;;;;;;;;;;;;;;;;;;5043551;28;20027;-76
2023/11/30 16:40:36;;;;;;;;;;;;;;;;;;5043118;28;19936;-76